Time;durP1;ratioP1;P1;durP2;ratioP2;P2;SDS_P1;SDS_P2;PMS_P1;PMS_P2;Temp;Humidity;BMP_temperature;BMP_pressure;BME280_temperature;BME280_humidity;BME280_pressure;Samples;Min_cycle;Max_cycle;Signal;HPM_P1;HPM_P2
2023/05/06 00:00:16;;;;;;;29.25;8.07;;;16.50;99.90;;;;;;5045156;28;20419;-73
2023/05/06 00:02:43;;;;;;;30.77;7.90;;;16.40;99.90;;;;;;5061166;28;20414;-72
2023/05/06 00:05:09;;;;;;;25.70;7.72;;;16.50;99.90;;;;;;5059437;28;20407;-73
2023/05/06 00:07:35;;;;;;;29.92;7.85;;;16.50;99.90;;;;;;5059111;28;20411;-72
2023/05/06 00:10:03;;;;;;;24.40;7.93;;;16.40;99.90;;;;;;5065270;28;20402;-73
2023/05/06 00:12:29;;;;;;;29.67;8.17;;;16.40;99.90;;;;;;5076834;28;20413;-73
2023/05/06 00:14:55;;;;;;;28.55;8.10;;;16.40;99.90;;;;;;5056583;28;20461;-73
2023/05/06 00:17:22;;;;;;;28.80;7.97;;;16.40;99.90;;;;;;5062569;28;20894;-73
2023/05/06 00:19:48;;;;;;;29.75;7.93;;;16.40;99.90;;;;;;5071090;28;20403;-72
2023/05/06 00:22:14;;;;;;;28.05;8.73;;;16.30;99.90;;;;;;5041601;28;20776;-73
2023/05/06 00:24:41;;;;;;;24.88;7.47;;;16.40;99.90;;;;;;5061272;28;20405;-72
2023/05/06 00:27:07;;;;;;;21.70;7.27;;;16.40;99.90;;;;;;5077038;28;20407;-73
2023/05/06 00:29:33;;;;;;;23.52;7.82;;;16.40;99.90;;;;;;5058225;28;20485;-72
2023/05/06 00:32:00;;;;;;;20.73;7.60;;;16.40;99.90;;;;;;5064428;28;20420;-72
2023/05/06 00:34:26;;;;;;;21.77;7.25;;;16.40;99.90;;;;;;5059656;28;20418;-73
2023/05/06 00:36:52;;;;;;;25.05;8.30;;;16.40;99.90;;;;;;5039917;28;20934;-73
2023/05/06 00:39:19;;;;;;;26.17;8.57;;;16.40;99.90;;;;;;5060096;28;20819;-73
2023/05/06 00:41:46;;;;;;;23.77;8.00;;;16.40;99.90;;;;;;5059594;28;20754;-73
2023/05/06 00:44:12;;;;;;;22.48;7.82;;;16.40;99.90;;;;;;5075175;28;20408;-72
2023/05/06 00:46:39;;;;;;;21.50;7.88;;;16.40;99.90;;;;;;5041697;28;20631;-73
2023/05/06 00:49:05;;;;;;;22.95;8.10;;;16.40;99.90;;;;;;5055920;28;20413;-73
2023/05/06 00:51:31;;;;;;;21.42;8.10;;;16.40;99.90;;;;;;5066081;28;20859;-73
2023/05/06 00:53:59;;;;;;;22.37;8.40;;;16.40;99.90;;;;;;5056130;28;20972;-73
2023/05/06 00:56:26;;;;;;;24.80;8.88;;;16.40;99.90;;;;;;5062188;28;20500;-73
2023/05/06 00:58:53;;;;;;;24.83;8.90;;;16.40;99.90;;;;;;5066017;28;20920;-73
2023/05/06 01:01:23;;;;;;;25.17;8.63;;;16.40;99.90;;;;;;5073482;28;20417;-73
2023/05/06 01:03:53;;;;;;;24.90;8.45;;;16.40;99.90;;;;;;5063263;28;21282;-72
2023/05/06 01:06:55;;;;;;;30.70;9.60;;;16.40;99.90;;;;;;5064559;28;20549;-73
2023/05/06 01:09:51;;;;;;;26.47;9.43;;;16.40;99.90;;;;;;5061942;28;20405;-73
2023/05/06 01:12:36;;;;;;;30.38;10.35;;;16.30;99.90;;;;;;5067812;28;20853;-73
2023/05/06 01:15:08;;;;;;;41.30;11.48;;;16.30;99.90;;;;;;5061642;28;20428;-73
2023/05/06 01:17:42;;;;;;;38.17;10.48;;;16.30;99.90;;;;;;5055415;28;20451;-73
2023/05/06 01:20:11;;;;;;;34.45;11.38;;;16.30;99.90;;;;;;5063448;28;20402;-73
2023/05/06 01:22:38;;;;;;;38.38;11.35;;;16.30;99.90;;;;;;5078079;28;20514;-73
2023/05/06 01:25:05;;;;;;;40.28;12.15;;;16.30;99.90;;;;;;5063974;28;20413;-73
2023/05/06 01:27:32;;;;;;;37.07;11.60;;;16.30;99.90;;;;;;5063454;28;20498;-73
2023/05/06 01:30:00;;;;;;;40.08;11.77;;;16.30;99.90;;;;;;5055581;28;20405;-73
2023/05/06 01:33:02;;;;;;;46.95;11.82;;;16.30;99.90;;;;;;5065017;28;20774;-73
2023/05/06 01:36:04;;;;;;;40.00;11.90;;;16.30;99.90;;;;;;5061633;28;20468;-73
2023/05/06 01:38:58;;;;;;;39.60;12.40;;;16.40;99.90;;;;;;5059176;28;20792;-73
2023/05/06 01:41:26;;;;;;;46.03;12.63;;;16.30;99.90;;;;;;5065866;28;20472;-73
2023/05/06 01:43:53;;;;;;;45.77;13.37;;;16.40;99.90;;;;;;5065169;28;20490;-72
2023/05/06 01:46:23;;;;;;;41.80;13.18;;;16.40;99.90;;;;;;5063116;28;20501;-73
2023/05/06 01:48:55;;;;;;;41.63;12.80;;;16.40;99.90;;;;;;5061167;28;20416;-73
2023/05/06 01:51:23;;;;;;;44.38;13.57;;;16.40;99.90;;;;;;5062779;28;20478;-73
2023/05/06 01:53:50;;;;;;;43.00;12.93;;;16.40;99.90;;;;;;5058299;28;20467;-73
2023/05/06 01:56:17;;;;;;;42.63;13.00;;;16.40;99.90;;;;;;5065056;28;21402;-73
2023/05/06 01:58:43;;;;;;;46.45;13.70;;;16.40;99.90;;;;;;5046338;28;20828;-72
2023/05/06 02:01:09;;;;;;;40.35;12.48;;;16.40;99.90;;;;;;5056017;28;20990;-72
2023/05/06 02:03:36;;;;;;;39.55;12.57;;;16.40;99.90;;;;;;5063494;28;21082;-72
2023/05/06 02:06:03;;;;;;;39.70;12.90;;;16.40;99.90;;;;;;5055438;28;20504;-73
2023/05/06 02:08:29;;;;;;;42.88;12.18;;;16.40;99.90;;;;;;5054448;28;21215;-72
2023/05/06 02:10:55;;;;;;;39.08;12.52;;;16.40;99.90;;;;;;5064181;28;20767;-73
2023/05/06 02:13:21;;;;;;;36.10;12.38;;;16.30;99.90;;;;;;5046463;28;20880;-72
2023/05/06 02:15:54;;;;;;;37.47;12.50;;;16.40;99.90;;;;;;5061498;28;20826;-73
2023/05/06 02:18:21;;;;;;;41.97;13.27;;;16.40;99.90;;;;;;5060076;28;20411;-72
2023/05/06 02:20:47;;;;;;;40.42;12.50;;;16.40;99.90;;;;;;5056688;28;20410;-73
2023/05/06 02:23:13;;;;;;;41.95;12.73;;;16.40;99.90;;;;;;5081240;28;20412;-73
2023/05/06 02:25:39;;;;;;;36.92;11.48;;;16.40;99.90;;;;;;5070188;28;20449;-72
2023/05/06 02:28:06;;;;;;;42.33;12.88;;;16.40;99.90;;;;;;5059278;28;20918;-73
2023/05/06 02:30:33;;;;;;;37.85;12.25;;;16.40;99.90;;;;;;5066375;28;21248;-73
2023/05/06 02:33:00;;;;;;;37.47;12.70;;;16.40;99.90;;;;;;5072122;28;20471;-73
2023/05/06 02:35:26;;;;;;;48.13;12.70;;;16.40;99.90;;;;;;5059212;28;20403;-72
2023/05/06 02:37:52;;;;;;;45.67;13.10;;;16.50;99.90;;;;;;5063573;28;20400;-73
2023/05/06 02:40:18;;;;;;;45.72;13.40;;;16.50;99.90;;;;;;5058353;28;21014;-73
2023/05/06 02:42:45;;;;;;;44.23;12.63;;;16.50;99.90;;;;;;5068121;28;20809;-73
2023/05/06 02:45:11;;;;;;;39.40;11.57;;;16.50;99.90;;;;;;5060133;28;20417;-72
2023/05/06 02:47:38;;;;;;;37.40;11.93;;;16.50;99.90;;;;;;5063866;28;21117;-73
2023/05/06 02:50:04;;;;;;;43.33;12.63;;;16.50;99.90;;;;;;5062208;28;20423;-72
2023/05/06 02:52:32;;;;;;;39.97;11.87;;;16.50;99.90;;;;;;5063998;28;20777;-73
2023/05/06 02:54:58;;;;;;;38.75;12.32;;;16.50;99.90;;;;;;5055680;28;20473;-72
2023/05/06 02:57:25;;;;;;;40.88;11.48;;;16.50;99.90;;;;;;5077259;28;20488;-72
2023/05/06 02:59:52;;;;;;;47.17;12.52;;;16.50;99.90;;;;;;5057472;28;20812;-73
2023/05/06 03:02:18;;;;;;;38.80;11.73;;;16.60;99.90;;;;;;5067610;28;20415;-73
2023/05/06 03:04:44;;;;;;;42.17;12.27;;;16.50;99.90;;;;;;5076170;28;20458;-72
2023/05/06 03:07:11;;;;;;;37.38;12.07;;;16.50;99.90;;;;;;5065576;28;20506;-73
2023/05/06 03:09:38;;;;;;;46.47;12.67;;;16.50;99.90;;;;;;5058791;28;20800;-72
2023/05/06 03:12:05;;;;;;;37.55;11.68;;;16.50;99.90;;;;;;5061930;28;20485;-72
2023/05/06 03:14:31;;;;;;;37.90;12.10;;;16.60;99.90;;;;;;5068116;28;20411;-72
2023/05/06 03:16:57;;;;;;;44.50;13.23;;;16.60;99.90;;;;;;5064913;28;20416;-72
2023/05/06 03:19:23;;;;;;;35.10;12.40;;;16.60;99.90;;;;;;5065111;28;20407;-73
2023/05/06 03:21:50;;;;;;;33.70;12.10;;;16.60;99.90;;;;;;5058521;28;20508;-73
2023/05/06 03:24:16;;;;;;;38.67;12.20;;;16.60;99.90;;;;;;5055983;28;20910;-73
2023/05/06 03:26:42;;;;;;;36.45;11.85;;;16.50;99.90;;;;;;5069767;28;20408;-72
2023/05/06 03:29:08;;;;;;;38.58;13.02;;;16.50;99.90;;;;;;5045475;28;20412;-72
2023/05/06 03:31:35;;;;;;;37.23;12.40;;;16.50;99.90;;;;;;5065778;28;20473;-73
2023/05/06 03:34:01;;;;;;;31.98;11.68;;;16.50;99.90;;;;;;5055619;28;20954;-73
2023/05/06 03:36:28;;;;;;;35.83;12.35;;;16.50;99.90;;;;;;5059722;28;20513;-72
2023/05/06 03:38:54;;;;;;;38.88;12.50;;;16.50;99.90;;;;;;5054069;28;20417;-73
2023/05/06 03:41:20;;;;;;;33.97;12.80;;;16.40;99.90;;;;;;5051740;28;20403;-73
2023/05/06 03:43:47;;;;;;;36.75;12.27;;;16.40;99.90;;;;;;5064828;28;20507;-73
2023/05/06 03:46:13;;;;;;;31.27;11.55;;;16.40;99.90;;;;;;5042955;28;20413;-73
2023/05/06 03:48:40;;;;;;;33.85;11.85;;;16.40;99.90;;;;;;5077777;28;20442;-73
2023/05/06 03:51:07;;;;;;;28.67;11.85;;;16.40;99.90;;;;;;5057415;28;20403;-73
2023/05/06 03:53:33;;;;;;;34.63;11.80;;;16.40;99.90;;;;;;5062174;28;20793;-72
2023/05/06 03:56:00;;;;;;;40.97;12.55;;;16.50;99.90;;;;;;5065467;28;20411;-73
2023/05/06 03:58:27;;;;;;;37.97;12.05;;;16.50;99.90;;;;;;5058004;28;20482;-73
2023/05/06 04:00:53;;;;;;;38.90;12.65;;;16.50;99.90;;;;;;5061764;28;20499;-73
2023/05/06 04:03:19;;;;;;;33.47;12.30;;;16.50;99.90;;;;;;5056308;28;20411;-73
2023/05/06 04:05:47;;;;;;;35.47;12.10;;;16.50;99.90;;;;;;5061361;28;20472;-72
2023/05/06 04:08:13;;;;;;;35.83;12.60;;;16.40;99.90;;;;;;5044529;28;20405;-72
2023/05/06 04:10:40;;;;;;;32.10;11.87;;;16.50;99.90;;;;;;5089298;28;20419;-73
2023/05/06 04:13:06;;;;;;;37.17;12.30;;;16.50;99.90;;;;;;5059853;28;20409;-73
2023/05/06 04:15:34;;;;;;;32.03;11.88;;;16.50;99.90;;;;;;5062045;28;20409;-73
2023/05/06 04:18:00;;;;;;;26.13;10.82;;;16.50;99.90;;;;;;5067390;28;21155;-73
2023/05/06 04:20:27;;;;;;;30.08;12.00;;;16.50;99.90;;;;;;5061333;28;20407;-73
2023/05/06 04:22:54;;;;;;;29.67;11.50;;;16.60;99.90;;;;;;5059104;28;20452;-72
2023/05/06 04:25:20;;;;;;;26.65;11.88;;;16.60;99.90;;;;;;5074819;28;20427;-73
2023/05/06 04:27:47;;;;;;;28.45;11.20;;;16.70;99.90;;;;;;5055684;28;20415;-72
2023/05/06 04:30:14;;;;;;;32.60;12.32;;;16.70;99.90;;;;;;5059628;28;20889;-73
2023/05/06 04:32:40;;;;;;;32.30;12.20;;;16.60;99.90;;;;;;5065550;28;20406;-72
2023/05/06 04:35:07;;;;;;;36.15;12.55;;;16.60;99.90;;;;;;5060766;28;20424;-72
2023/05/06 04:37:33;;;;;;;33.15;12.48;;;16.60;99.90;;;;;;5059573;28;20408;-73
2023/05/06 04:40:01;;;;;;;28.65;11.20;;;16.50;99.90;;;;;;5067109;28;20757;-72
2023/05/06 04:42:27;;;;;;;27.33;10.60;;;16.50;99.90;;;;;;5082757;28;20399;-73
2023/05/06 04:44:54;;;;;;;27.00;11.15;;;16.50;99.90;;;;;;5066375;28;20411;-73
2023/05/06 04:47:20;;;;;;;24.95;11.30;;;16.60;99.90;;;;;;5061879;28;20410;-73
2023/05/06 04:49:47;;;;;;;37.78;11.30;;;16.60;99.90;;;;;;5067069;28;20421;-72
2023/05/06 04:52:13;;;;;;;27.83;10.77;;;16.60;99.90;;;;;;5067299;28;20406;-73
2023/05/06 04:54:39;;;;;;;30.13;10.50;;;16.60;99.90;;;;;;5076929;28;20416;-73
2023/05/06 04:57:05;;;;;;;32.40;11.07;;;16.60;99.90;;;;;;5067845;28;20407;-73
2023/05/06 04:59:31;;;;;;;33.07;10.70;;;16.60;99.90;;;;;;5068415;28;20508;-72
2023/05/06 05:01:57;;;;;;;29.92;10.70;;;16.50;99.90;;;;;;5048617;28;20498;-73
2023/05/06 05:04:24;;;;;;;28.95;11.05;;;16.50;99.90;;;;;;5063393;28;20481;-72
2023/05/06 05:06:50;;;;;;;26.92;10.20;;;16.50;99.90;;;;;;5062315;28;20407;-73
2023/05/06 05:09:16;;;;;;;29.17;10.63;;;16.50;99.90;;;;;;5063759;28;20502;-72
2023/05/06 05:11:42;;;;;;;30.50;10.10;;;16.50;99.90;;;;;;5065569;28;20427;-72
2023/05/06 05:14:09;;;;;;;26.17;10.00;;;16.50;99.90;;;;;;5061180;28;20425;-73
2023/05/06 05:16:35;;;;;;;30.42;10.07;;;16.50;99.90;;;;;;5063367;28;20422;-73
2023/05/06 05:19:01;;;;;;;25.38;10.07;;;16.50;99.90;;;;;;5067244;28;20445;-73
2023/05/06 05:21:28;;;;;;;28.93;9.70;;;16.50;99.90;;;;;;5063383;28;20403;-73
2023/05/06 05:23:54;;;;;;;24.75;9.20;;;16.60;99.90;;;;;;5065268;28;20741;-72
2023/05/06 05:26:20;;;;;;;31.25;9.80;;;16.60;99.90;;;;;;5081497;28;20406;-73
2023/05/06 05:28:46;;;;;;;27.02;8.90;;;16.60;99.90;;;;;;5062930;28;20494;-73
2023/05/06 05:31:13;;;;;;;29.88;10.02;;;16.60;99.90;;;;;;5057630;28;20455;-73
2023/05/06 05:33:39;;;;;;;24.40;8.63;;;16.70;99.90;;;;;;5064115;28;20492;-73
2023/05/06 05:36:06;;;;;;;28.25;8.95;;;16.60;99.90;;;;;;5049620;28;20398;-72
2023/05/06 05:38:32;;;;;;;27.20;8.90;;;16.60;99.90;;;;;;5045568;28;20405;-73
2023/05/06 05:40:59;;;;;;;28.67;8.13;;;16.60;99.90;;;;;;5058195;28;20808;-72
2023/05/06 05:43:25;;;;;;;26.83;8.25;;;16.50;99.90;;;;;;5072124;28;21175;-73
2023/05/06 05:45:52;;;;;;;24.38;7.95;;;16.60;99.90;;;;;;5062325;28;20510;-73
2023/05/06 05:48:18;;;;;;;26.37;8.30;;;16.80;99.90;;;;;;5066510;28;20496;-73
2023/05/06 05:50:45;;;;;;;24.42;7.43;;;16.90;99.90;;;;;;5044093;28;20439;-72
2023/05/06 05:53:12;;;;;;;23.02;7.85;;;16.80;99.90;;;;;;5093390;28;20974;-73
2023/05/06 05:55:38;;;;;;;23.58;7.18;;;16.70;99.90;;;;;;5061325;28;20407;-73
2023/05/06 05:58:04;;;;;;;21.92;7.38;;;16.70;99.90;;;;;;5061089;28;20408;-72
2023/05/06 06:00:30;;;;;;;22.85;7.50;;;16.70;99.90;;;;;;5062676;28;20419;-73
2023/05/06 06:02:57;;;;;;;18.90;6.53;;;16.70;99.90;;;;;;5062500;28;20886;-72
2023/05/06 06:05:23;;;;;;;22.15;6.68;;;16.70;99.90;;;;;;5063752;28;20904;-73
2023/05/06 06:07:50;;;;;;;22.30;6.70;;;16.70;99.90;;;;;;5064154;28;20404;-73
2023/05/06 06:10:16;;;;;;;28.20;6.85;;;16.70;99.90;;;;;;5068061;28;20942;-73
2023/05/06 06:12:43;;;;;;;21.40;6.20;;;16.80;99.90;;;;;;5044636;28;20401;-72
2023/05/06 06:15:10;;;;;;;25.30;7.05;;;16.80;99.90;;;;;;5059818;28;20409;-73
2023/05/06 06:17:36;;;;;;;21.95;6.18;;;16.90;99.90;;;;;;5073315;28;21116;-72
2023/05/06 06:20:03;;;;;;;21.25;7.03;;;17.00;99.90;;;;;;5072947;28;20494;-72
2023/05/06 06:22:30;;;;;;;21.63;6.47;;;17.00;99.90;;;;;;5063153;28;20442;-73
2023/05/06 06:24:56;;;;;;;20.75;6.50;;;16.90;99.90;;;;;;5080899;28;20446;-72
2023/05/06 06:27:22;;;;;;;22.88;6.68;;;17.00;99.90;;;;;;5061178;28;20956;-73
2023/05/06 06:29:48;;;;;;;21.73;6.20;;;17.00;99.90;;;;;;5072026;28;20408;-73
2023/05/06 06:32:15;;;;;;;18.85;5.90;;;17.10;99.90;;;;;;5041980;28;20408;-72
2023/05/06 06:34:41;;;;;;;18.08;5.70;;;17.20;99.90;;;;;;5064435;28;20493;-73
2023/05/06 06:37:10;;;;;;;25.65;6.35;;;17.30;99.90;;;;;;5073680;28;20404;-72
2023/05/06 06:39:37;;;;;;;22.83;6.13;;;17.20;99.90;;;;;;5078066;28;20986;-73
2023/05/06 06:42:05;;;;;;;19.48;6.07;;;17.20;99.90;;;;;;5065436;28;20486;-72
2023/05/06 06:44:34;;;;;;;21.38;5.95;;;17.20;99.90;;;;;;5073458;28;20409;-72
2023/05/06 06:47:01;;;;;;;20.30;5.88;;;17.30;99.90;;;;;;5057283;28;20436;-72
2023/05/06 06:49:29;;;;;;;21.55;5.82;;;17.30;99.90;;;;;;5064586;28;20529;-73
2023/05/06 06:51:59;;;;;;;16.08;5.00;;;17.50;99.90;;;;;;5078156;28;20415;-73
2023/05/06 06:54:25;;;;;;;22.00;5.97;;;17.70;99.90;;;;;;5060084;28;20443;-72
2023/05/06 06:56:56;;;;;;;17.52;5.32;;;17.80;99.90;;;;;;5063417;28;20432;-73
2023/05/06 06:59:22;;;;;;;17.00;5.03;;;18.00;99.90;;;;;;5062066;28;20410;-72
2023/05/06 07:01:50;;;;;;;16.77;4.93;;;18.10;99.90;;;;;;5060195;28;20584;-73
2023/05/06 07:04:16;;;;;;;18.23;4.82;;;18.10;99.90;;;;;;5059513;28;20411;-72
2023/05/06 07:06:43;;;;;;;17.97;4.57;;;18.20;99.90;;;;;;5062684;28;20498;-72
2023/05/06 07:09:09;;;;;;;15.65;4.80;;;18.30;99.90;;;;;;5075320;28;20823;-72
2023/05/06 07:11:35;;;;;;;16.45;5.07;;;18.40;99.90;;;;;;5041279;28;20413;-73
2023/05/06 07:14:01;;;;;;;16.15;4.43;;;18.40;99.90;;;;;;5062721;28;20843;-73
2023/05/06 07:16:27;;;;;;;20.00;4.82;;;18.30;99.90;;;;;;5055486;28;20399;-73
2023/05/06 07:18:54;;;;;;;15.90;4.63;;;18.30;99.90;;;;;;5062099;28;20410;-72
2023/05/06 07:21:20;;;;;;;19.38;4.57;;;18.40;99.90;;;;;;5057902;28;20917;-73
2023/05/06 07:23:46;;;;;;;16.65;4.70;;;18.40;99.90;;;;;;5058669;28;20794;-72
2023/05/06 07:26:12;;;;;;;15.07;4.85;;;18.30;99.90;;;;;;5060313;28;20477;-72
2023/05/06 07:28:39;;;;;;;18.20;4.88;;;18.30;99.90;;;;;;5063602;28;20502;-72
2023/05/06 07:31:05;;;;;;;14.30;4.50;;;18.30;99.90;;;;;;5061041;28;20420;-72
2023/05/06 07:33:31;;;;;;;15.40;4.65;;;18.20;99.90;;;;;;5060704;28;20470;-72
2023/05/06 07:35:57;;;;;;;16.63;5.00;;;18.10;99.90;;;;;;5063485;28;20418;-73
2023/05/06 07:38:24;;;;;;;21.67;5.45;;;18.00;99.90;;;;;;5063362;28;20530;-72
2023/05/06 07:40:53;;;;;;;16.73;4.75;;;18.00;99.90;;;;;;5060593;28;20411;-73
2023/05/06 07:43:21;;;;;;;17.02;4.78;;;17.90;99.90;;;;;;5062446;28;20411;-73
2023/05/06 07:45:47;;;;;;;21.13;4.97;;;17.90;99.90;;;;;;5062063;28;20403;-72
2023/05/06 07:48:14;;;;;;;16.08;4.72;;;17.90;99.90;;;;;;5063165;28;20417;-73
2023/05/06 07:50:40;;;;;;;14.05;4.75;;;17.90;99.90;;;;;;5060033;28;20408;-72
2023/05/06 07:53:06;;;;;;;18.38;5.05;;;17.80;99.90;;;;;;5059398;28;20407;-72
2023/05/06 07:55:33;;;;;;;14.13;4.53;;;17.80;99.90;;;;;;5061365;28;20403;-72
2023/05/06 07:57:59;;;;;;;20.03;5.23;;;17.80;99.90;;;;;;5062515;28;20413;-73
2023/05/06 08:00:25;;;;;;;17.45;4.75;;;17.90;99.90;;;;;;5060776;28;20842;-73
2023/05/06 08:02:51;;;;;;;13.60;4.15;;;17.90;99.90;;;;;;5059917;28;20468;-72
2023/05/06 08:05:18;;;;;;;15.52;4.45;;;17.90;99.90;;;;;;5060269;28;20411;-72
2023/05/06 08:07:45;;;;;;;16.53;4.43;;;17.80;99.90;;;;;;5046158;28;20404;-73
2023/05/06 08:10:11;;;;;;;16.50;4.70;;;17.90;99.90;;;;;;5068035;28;20418;-72
2023/05/06 08:12:37;;;;;;;17.98;5.10;;;17.90;99.90;;;;;;5064364;28;20423;-72
2023/05/06 08:15:05;;;;;;;15.90;4.80;;;18.00;99.90;;;;;;5056970;28;20419;-73
2023/05/06 08:17:31;;;;;;;18.52;4.90;;;18.00;99.90;;;;;;5061143;28;21035;-72
2023/05/06 08:19:57;;;;;;;19.17;4.97;;;18.20;99.90;;;;;;5063274;28;21000;-72
2023/05/06 08:22:23;;;;;;;16.27;4.88;;;18.30;99.90;;;;;;5076419;28;20827;-73
2023/05/06 08:24:49;;;;;;;13.18;4.20;;;18.40;99.90;;;;;;5057303;28;20964;-72
2023/05/06 08:27:24;;;;;;;16.00;4.50;;;18.40;99.90;;;;;;5053178;28;20441;-73
2023/05/06 08:29:50;;;;;;;13.13;4.10;;;18.40;99.90;;;;;;5062024;28;20942;-72
2023/05/06 08:32:16;;;;;;;15.23;4.22;;;18.30;99.90;;;;;;5061177;28;20942;-72
2023/05/06 08:34:43;;;;;;;17.17;4.50;;;18.20;99.90;;;;;;5058196;28;20918;-73
2023/05/06 08:37:09;;;;;;;13.68;4.15;;;18.20;99.90;;;;;;5075951;28;20950;-73
2023/05/06 08:39:35;;;;;;;13.88;4.25;;;18.20;99.90;;;;;;5071813;28;20412;-72
2023/05/06 08:42:04;;;;;;;15.68;4.57;;;18.10;99.90;;;;;;5054961;28;20410;-72
2023/05/06 08:44:30;;;;;;;14.40;4.20;;;18.00;99.90;;;;;;5047277;28;20418;-72
2023/05/06 08:46:57;;;;;;;15.35;4.80;;;18.00;99.90;;;;;;5041737;28;20488;-73
2023/05/06 08:49:24;;;;;;;16.85;4.60;;;18.00;99.90;;;;;;5061405;28;21103;-73
2023/05/06 08:51:51;;;;;;;14.55;4.60;;;17.90;99.90;;;;;;5060290;28;20435;-72
2023/05/06 08:54:18;;;;;;;12.35;4.07;;;17.90;99.90;;;;;;5052396;28;20911;-73
2023/05/06 08:56:55;;;;;;;12.80;4.90;;;17.90;99.90;;;;;;5058332;28;20407;-72
2023/05/06 08:59:29;;;;;;;12.23;4.50;;;18.00;99.90;;;;;;5051546;28;20419;-72
2023/05/06 09:02:01;;;;;;;13.27;4.60;;;17.90;99.90;;;;;;5062352;28;20450;-72
2023/05/06 09:04:28;;;;;;;17.00;4.70;;;18.00;99.90;;;;;;5059372;28;21015;-72
2023/05/06 09:06:57;;;;;;;15.17;4.53;;;18.00;99.90;;;;;;5051612;28;20406;-73
2023/05/06 09:09:24;;;;;;;14.80;4.07;;;17.90;99.90;;;;;;5045721;28;20422;-72
2023/05/06 09:11:52;;;;;;;15.73;4.37;;;17.90;99.90;;;;;;5055730;28;20403;-73
2023/05/06 09:14:21;;;;;;;13.75;4.38;;;17.90;99.90;;;;;;5059640;28;20423;-72
2023/05/06 09:16:51;;;;;;;16.02;4.97;;;17.90;99.90;;;;;;5061976;28;20409;-73
2023/05/06 09:19:21;;;;;;;13.63;4.57;;;17.90;99.90;;;;;;5064300;28;20422;-72
2023/05/06 09:21:50;;;;;;;17.13;4.72;;;17.90;99.90;;;;;;5062711;28;20880;-72
2023/05/06 09:24:17;;;;;;;15.00;4.90;;;18.00;99.90;;;;;;5062896;28;20462;-73
2023/05/06 09:26:46;;;;;;;13.70;4.50;;;18.00;99.90;;;;;;5075073;28;20473;-73
2023/05/06 09:29:13;;;;;;;13.27;4.40;;;17.90;99.90;;;;;;5058383;28;20899;-72
2023/05/06 09:31:45;;;;;;;11.57;4.25;;;17.90;99.90;;;;;;5060800;28;20419;-73
2023/05/06 09:34:13;;;;;;;12.77;4.28;;;17.90;99.90;;;;;;5069297;28;20419;-72
2023/05/06 09:36:40;;;;;;;15.40;4.18;;;17.90;99.90;;;;;;5059961;28;20540;-72
2023/05/06 09:39:07;;;;;;;13.02;4.13;;;17.90;99.90;;;;;;5062817;28;20445;-72
2023/05/06 09:41:34;;;;;;;13.17;4.30;;;18.00;99.90;;;;;;5061774;28;20473;-72
2023/05/06 09:44:01;;;;;;;12.80;4.22;;;18.00;99.90;;;;;;5058226;28;20993;-72
2023/05/06 09:46:28;;;;;;;15.45;4.10;;;18.00;99.90;;;;;;5068030;28;20451;-72
2023/05/06 09:48:57;;;;;;;14.38;4.53;;;18.00;99.90;;;;;;5062881;28;20403;-73
2023/05/06 09:51:26;;;;;;;12.05;4.20;;;18.00;99.90;;;;;;5057872;28;20428;-73
2023/05/06 09:53:55;;;;;;;15.23;4.10;;;18.00;99.90;;;;;;5066772;28;20496;-72
2023/05/06 09:56:22;;;;;;;12.07;4.10;;;18.00;99.90;;;;;;5078386;28;20922;-73
2023/05/06 09:58:51;;;;;;;12.20;4.10;;;17.90;99.90;;;;;;5061686;28;20417;-73
2023/05/06 10:01:19;;;;;;;11.35;4.18;;;17.90;99.90;;;;;;5066697;28;20904;-72
2023/05/06 10:03:46;;;;;;;13.13;4.47;;;17.90;99.90;;;;;;5063181;28;20407;-73
2023/05/06 10:06:14;;;;;;;9.85;3.83;;;17.90;99.90;;;;;;5058863;28;20425;-73
2023/05/06 10:08:44;;;;;;;11.50;3.73;;;17.90;99.90;;;;;;5071846;28;20417;-73
2023/05/06 10:11:13;;;;;;;14.00;4.13;;;17.90;99.90;;;;;;5057424;28;21277;-72
2023/05/06 10:13:41;;;;;;;13.52;4.40;;;17.90;99.90;;;;;;5060868;28;20417;-72
2023/05/06 10:16:09;;;;;;;12.18;4.10;;;17.90;99.90;;;;;;5079214;28;20418;-73
2023/05/06 10:18:37;;;;;;;10.47;3.77;;;17.90;99.90;;;;;;5045094;28;20506;-72
2023/05/06 10:21:16;;;;;;;11.70;4.00;;;17.90;99.90;;;;;;5060130;28;20973;-72
2023/05/06 10:24:05;;;;;;;12.32;3.58;;;17.90;99.90;;;;;;5060002;28;20852;-72
2023/05/06 10:26:36;;;;;;;15.07;4.00;;;17.90;99.90;;;;;;5067505;28;20470;-72
2023/05/06 10:29:07;;;;;;;11.77;4.10;;;18.00;99.90;;;;;;5064330;28;20419;-72
2023/05/06 10:31:38;;;;;;;13.00;3.92;;;18.00;99.90;;;;;;5082339;28;20403;-72
2023/05/06 10:34:08;;;;;;;10.32;3.80;;;18.10;99.90;;;;;;5078203;28;20932;-72
2023/05/06 10:36:36;;;;;;;13.02;3.80;;;18.20;99.90;;;;;;5055019;28;20396;-73
2023/05/06 10:39:03;;;;;;;12.40;3.60;;;18.30;99.90;;;;;;5066699;28;20417;-73
2023/05/06 10:41:32;;;;;;;16.93;4.43;;;18.30;99.90;;;;;;5062891;28;20568;-72
2023/05/06 10:43:58;;;;;;;13.50;3.95;;;18.30;99.90;;;;;;5063899;28;20422;-73
2023/05/06 10:46:27;;;;;;;10.98;3.75;;;18.20;99.90;;;;;;5064778;28;20823;-73
2023/05/06 10:49:12;;;;;;;11.17;3.80;;;18.20;99.90;;;;;;5056910;28;20510;-72
2023/05/06 10:51:40;;;;;;;9.93;4.10;;;18.40;99.90;;;;;;5055685;28;20549;-72
2023/05/06 10:54:07;;;;;;;12.70;4.10;;;18.70;99.90;;;;;;5061114;28;20418;-73
2023/05/06 10:56:35;;;;;;;14.63;4.07;;;18.80;99.90;;;;;;5067599;28;20916;-72
2023/05/06 10:59:08;;;;;;;15.10;4.03;;;18.90;99.90;;;;;;5060983;28;21084;-72
2023/05/06 11:01:43;;;;;;;11.43;3.90;;;18.80;99.90;;;;;;5062311;28;20411;-71
2023/05/06 11:04:17;;;;;;;13.07;3.97;;;18.90;99.90;;;;;;5060284;28;20413;-71
2023/05/06 11:06:52;;;;;;;11.73;4.13;;;18.90;99.90;;;;;;5055057;28;20565;-71
2023/05/06 11:09:26;;;;;;;11.95;3.80;;;18.90;99.90;;;;;;5060056;28;20494;-71
2023/05/06 11:12:04;;;;;;;11.20;3.78;;;18.80;99.90;;;;;;5063766;28;20468;-71
2023/05/06 11:14:36;;;;;;;11.10;3.58;;;18.80;99.90;;;;;;5063808;28;20424;-71
2023/05/06 11:17:08;;;;;;;13.43;3.97;;;18.70;99.90;;;;;;5062582;28;20444;-71
2023/05/06 11:19:39;;;;;;;10.63;3.88;;;18.60;99.90;;;;;;5061353;28;20817;-71
2023/05/06 11:22:06;;;;;;;12.57;4.03;;;18.70;99.90;;;;;;5073338;28;21009;-71
2023/05/06 11:24:41;;;;;;;18.65;4.88;;;18.80;99.90;;;;;;5059426;28;20409;-71
2023/05/06 11:27:09;;;;;;;10.75;4.28;;;18.80;99.90;;;;;;5061533;28;20415;-71
2023/05/06 11:29:36;;;;;;;13.65;4.35;;;18.80;99.90;;;;;;5065356;28;20502;-71
2023/05/06 11:32:21;;;;;;;10.98;3.92;;;18.90;99.90;;;;;;5062866;28;20443;-71
2023/05/06 11:34:47;;;;;;;14.27;4.13;;;19.00;99.90;;;;;;5058591;28;20424;-71
2023/05/06 11:37:28;;;;;;;15.27;4.65;;;19.10;99.90;;;;;;5070181;28;20415;-71
2023/05/06 11:39:54;;;;;;;11.80;3.80;;;19.10;99.90;;;;;;5054456;28;20918;-71
2023/05/06 11:42:28;;;;;;;12.23;4.15;;;19.10;99.90;;;;;;5058043;28;20766;-71
2023/05/06 11:44:55;;;;;;;13.02;4.30;;;19.10;99.90;;;;;;5052506;28;20455;-71
2023/05/06 11:47:26;;;;;;;11.93;4.10;;;19.10;99.90;;;;;;5062304;28;20430;-71
2023/05/06 11:49:55;;;;;;;10.25;3.83;;;19.10;99.90;;;;;;5057666;28;20417;-71
2023/05/06 11:52:21;;;;;;;8.65;3.63;;;19.10;99.90;;;;;;5059276;28;20416;-71
2023/05/06 11:54:52;;;;;;;11.38;4.28;;;19.00;99.90;;;;;;5059865;28;20407;-71
2023/05/06 11:57:19;;;;;;;11.15;4.00;;;19.00;99.90;;;;;;5056961;28;20487;-71
2023/05/06 11:59:46;;;;;;;11.18;4.28;;;19.10;99.90;;;;;;5064366;28;20485;-71
2023/05/06 12:02:13;;;;;;;13.38;4.30;;;19.10;99.90;;;;;;5076693;28;20743;-71
2023/05/06 12:04:48;;;;;;;9.82;3.97;;;19.10;99.90;;;;;;5070927;28;20406;-71
2023/05/06 12:07:16;;;;;;;12.15;4.35;;;19.10;99.90;;;;;;5059806;28;20419;-71
2023/05/06 12:09:46;;;;;;;14.38;4.07;;;19.10;99.90;;;;;;5078526;28;20408;-71
2023/05/06 12:12:18;;;;;;;10.02;4.00;;;19.10;99.90;;;;;;5062557;28;20412;-71
2023/05/06 12:14:46;;;;;;;13.02;4.45;;;19.10;99.90;;;;;;5072414;28;20420;-71
2023/05/06 12:17:13;;;;;;;11.77;4.03;;;19.00;99.90;;;;;;5072196;28;21003;-71
2023/05/06 12:19:39;;;;;;;12.85;4.20;;;19.10;99.90;;;;;;5058542;28;20781;-71
2023/05/06 12:22:25;;;;;;;8.80;3.53;;;19.20;99.90;;;;;;5065064;28;20520;-71
2023/05/06 12:24:51;;;;;;;9.52;3.60;;;19.20;99.90;;;;;;5059476;28;20417;-71
2023/05/06 12:27:33;;;;;;;9.13;3.57;;;19.20;99.90;;;;;;5060671;28;21281;-71
2023/05/06 12:30:00;;;;;;;9.68;3.47;;;19.20;99.90;;;;;;5063665;28;20999;-71
2023/05/06 12:32:26;;;;;;;9.88;4.03;;;19.20;99.90;;;;;;5062998;28;20455;-71
2023/05/06 12:34:53;;;;;;;11.02;3.58;;;19.20;99.90;;;;;;5057661;28;20753;-71
2023/05/06 12:37:28;;;;;;;8.55;3.28;;;19.10;99.90;;;;;;5063464;28;20433;-71